Time;durP1;ratioP1;P1;durP2;ratioP2;P2;SDS_P1;SDS_P2;PMS_P1;PMS_P2;Temp;Humidity;BMP_temperature;BMP_pressure;BME280_temperature;BME280_humidity;BME280_pressure;Samples;Min_cycle;Max_cycle;Signal;HPM_P1;HPM_P2
2023/11/27 00:01:51;;;;;;;16.13;11.80;;;;;;;-145.63;59.78;39127.91;4945372;29;20030;-66
2023/11/27 00:04:16;;;;;;;14.77;11.45;;;;;;;-145.63;60.15;39145.50;4945437;29;20095;-66
2023/11/27 00:06:42;;;;;;;14.77;10.95;;;;;;;-145.63;59.63;39168.97;4945299;29;20035;-66
2023/11/27 00:09:09;;;;;;;13.20;10.70;;;;;;;-145.63;59.36;39153.31;4945385;29;20325;-66
2023/11/27 00:11:37;;;;;;;14.43;10.80;;;;;;;-145.63;59.39;39157.22;4945131;29;20032;-66
2023/11/27 00:14:06;;;;;;;14.63;10.90;;;;;;;-145.63;59.37;39141.59;4945089;29;20023;-65
2023/11/27 00:16:32;;;;;;;16.52;11.68;;;;;;;-145.63;59.55;39125.94;4945144;29;20232;-66
2023/11/27 00:18:57;;;;;;;14.30;11.40;;;;;;;-145.63;59.71;39153.31;4944648;29;20255;-66
2023/11/27 00:21:23;;;;;;;15.45;10.82;;;;;;;-145.63;59.96;39125.94;4945110;29;20035;-66
2023/11/27 00:23:48;;;;;;;14.88;10.45;;;;;;;-145.63;59.75;39159.19;4945444;29;20027;-66
2023/11/27 00:26:14;;;;;;;14.45;11.13;;;;;;;-145.63;59.67;39159.19;4945265;29;20062;-67
2023/11/27 00:28:40;;;;;;;16.27;12.07;;;;;;;-145.63;59.42;39155.28;4944977;29;20031;-65
2023/11/27 00:31:09;;;;;;;15.13;11.20;;;;;;;-145.63;59.54;39137.69;4945245;29;20095;-65
2023/11/27 00:33:36;;;;;;;15.10;11.57;;;;;;;-145.63;60.00;39172.88;4944898;29;20488;-66
2023/11/27 00:36:03;;;;;;;18.75;10.45;;;;;;;-145.63;60.41;39123.97;4944981;29;20050;-66
2023/11/27 00:38:28;;;;;;;14.43;10.95;;;;;;;-145.63;60.89;39123.97;4944946;29;20090;-66
2023/11/27 00:40:54;;;;;;;17.15;11.32;;;;;;;-145.63;61.03;39153.31;4943918;29;20023;-66
2023/11/27 00:43:20;;;;;;;15.70;10.88;;;;;;;-145.63;60.46;39178.75;4945057;29;20074;-65
2023/11/27 00:45:45;;;;;;;14.93;11.40;;;;;;;-145.63;60.47;39133.75;4945330;29;20354;-66
2023/11/27 00:48:11;;;;;;;23.60;12.15;;;;;;;-145.63;60.80;39129.84;4944961;29;20046;-67
2023/11/27 00:50:37;;;;;;;15.60;10.63;;;;;;;-145.63;60.50;39143.53;4944117;29;20032;-67
2023/11/27 00:53:03;;;;;;;15.13;11.48;;;;;;;-145.63;60.28;39157.22;4944980;29;20027;-67
2023/11/27 00:55:29;;;;;;;15.93;11.20;;;;;;;-145.63;60.34;39133.75;4944866;29;20307;-67
2023/11/27 00:57:55;;;;;;;14.93;11.13;;;;;;;-145.63;60.79;39143.53;4944730;29;20040;-66
2023/11/27 01:00:21;;;;;;;13.13;10.50;;;;;;;-145.63;60.72;39127.91;4945027;29;20039;-66
2023/11/27 01:02:46;;;;;;;16.52;11.93;;;;;;;-145.63;60.38;39153.31;4944903;29;20028;-67
2023/11/27 01:05:15;;;;;;;15.65;11.32;;;;;;;-145.63;60.90;39168.97;4945043;29;20028;-67
2023/11/27 01:07:41;;;;;;;14.00;10.65;;;;;;;-145.63;60.31;39170.91;4944832;29;20032;-67
2023/11/27 01:10:09;;;;;;;16.17;10.65;;;;;;;-145.63;60.70;39133.75;4945028;29;20188;-67
2023/11/27 01:12:38;;;;;;;13.77;10.00;;;;;;;-145.63;61.19;39165.06;4943902;29;20051;-67
2023/11/27 01:15:06;;;;;;;14.10;10.55;;;;;;;-145.63;61.07;39139.63;4937940;29;20066;-66
2023/11/27 01:17:32;;;;;;;14.10;10.00;;;;;;;-145.63;61.63;39145.50;4933878;29;20019;-65
2023/11/27 01:19:57;;;;;;;14.32;10.73;;;;;;;-145.63;61.11;39118.13;4944840;29;20031;-65
2023/11/27 01:22:23;;;;;;;12.93;10.02;;;;;;;-145.63;60.94;39153.31;4944937;29;20038;-65
2023/11/27 01:24:49;;;;;;;12.43;9.40;;;;;;;-145.63;60.62;39141.59;4947683;29;20212;-65
2023/11/27 01:27:15;;;;;;;12.05;9.48;;;;;;;-145.63;60.67;39153.31;4948452;29;20073;-66
2023/11/27 01:29:40;;;;;;;13.45;9.45;;;;;;;-145.63;60.54;39133.75;4948176;29;20028;-67
2023/11/27 01:32:07;;;;;;;17.92;10.20;;;;;;;-145.63;60.60;39137.69;4947336;29;20355;-67
2023/11/27 01:34:33;;;;;;;11.63;8.93;;;;;;;-145.63;59.92;39131.81;4948166;29;20047;-66
2023/11/27 01:36:59;;;;;;;12.68;9.30;;;;;;;-145.63;60.21;39143.53;4948456;29;20038;-65
2023/11/27 01:39:24;;;;;;;14.10;9.68;;;;;;;-145.63;59.55;39153.31;4948460;29;20050;-66
2023/11/27 01:41:50;;;;;;;12.63;9.40;;;;;;;-145.63;59.63;39157.22;4948141;29;20327;-66
2023/11/27 01:44:15;;;;;;;11.13;8.90;;;;;;;-145.63;59.61;39131.81;4947882;29;20099;-66
2023/11/27 01:46:45;;;;;;;13.57;9.05;;;;;;;-145.63;58.87;39122.03;4947779;29;20027;-67
2023/11/27 01:49:12;;;;;;;11.50;8.50;;;;;;;-145.63;59.20;39147.44;4955660;29;20038;-66
2023/11/27 01:51:40;;;;;;;13.07;7.50;;;;;;;-145.63;59.13;39137.69;4949233;29;20029;-67
2023/11/27 01:54:06;;;;;;;11.50;8.27;;;;;;;-145.63;58.85;39137.69;4946551;29;20038;-67
2023/11/27 01:56:33;;;;;;;12.82;9.25;;;;;;;-145.63;59.19;39180.69;4947916;29;20023;-65
2023/11/27 01:59:00;;;;;;;11.13;8.23;;;;;;;-145.63;58.47;39135.72;4947666;29;20032;-65
2023/11/27 02:01:28;;;;;;;12.48;8.73;;;;;;;-145.63;58.51;39149.41;4947630;29;20347;-67
2023/11/27 02:03:54;;;;;;;11.10;8.45;;;;;;;-145.63;58.74;39137.69;4947467;29;20047;-66
2023/11/27 02:06:20;;;;;;;10.35;8.35;;;;;;;-145.63;59.05;38793.50;4947598;29;20027;-66
2023/11/27 02:08:46;;;;;;;10.80;8.63;;;;;;;-145.63;58.70;39182.66;4947016;29;20035;-66
2023/11/27 02:11:18;;;;;;;11.50;8.88;;;;;;;-145.63;59.21;39149.41;4947502;29;20026;-66
2023/11/27 02:13:44;;;;;;;13.02;9.05;;;;;;;-145.63;58.77;39143.53;4947339;29;20090;-67
2023/11/27 02:16:10;;;;;;;12.35;8.32;;;;;;;-145.63;59.13;39157.22;4931630;29;20304;-67
2023/11/27 02:18:36;;;;;;;11.63;8.70;;;;;;;-145.63;59.51;39137.69;4943209;29;20035;-66
2023/11/27 02:21:03;;;;;;;11.32;8.50;;;;;;;-145.63;59.12;39131.81;4947411;29;20095;-67
2023/11/27 02:23:29;;;;;;;10.65;8.55;;;;;;;-145.63;59.25;38347.66;4945756;29;20192;-65
2023/11/27 02:25:55;;;;;;;10.07;7.72;;;;;;;-145.63;59.21;39161.13;4945925;29;20028;-66
2023/11/27 02:28:20;;;;;;;10.50;8.55;;;;;;;-145.63;59.61;39145.50;4947321;29;20024;-67
2023/11/27 02:30:46;;;;;;;10.95;8.20;;;;;;;-145.63;59.32;39137.69;4945819;29;20030;-66
2023/11/27 02:33:12;;;;;;;12.48;9.43;;;;;;;-145.63;59.39;39145.50;4946832;29;20391;-66
2023/11/27 02:35:37;;;;;;;11.68;8.05;;;;;;;-145.63;59.84;39178.75;4945890;29;20032;-65
2023/11/27 02:38:03;;;;;;;12.05;8.23;;;;;;;-145.63;59.85;39141.59;4946821;29;20212;-66
2023/11/27 02:40:30;;;;;;;8.88;7.88;;;;;;;-145.63;59.96;39182.66;4946852;29;20031;-65
2023/11/27 02:42:56;;;;;;;11.93;8.75;;;;;;;-145.63;60.15;39145.50;4946650;29;20193;-66
2023/11/27 02:45:21;;;;;;;11.38;8.27;;;;;;;-145.63;60.17;39157.22;4946441;29;20300;-66
2023/11/27 02:47:47;;;;;;;10.57;8.07;;;;;;;-145.63;60.52;39149.41;4945731;29;20071;-66
2023/11/27 02:50:13;;;;;;;9.85;8.02;;;;;;;-145.63;60.24;39186.56;4957379;28;20165;-66
2023/11/27 02:52:40;;;;;;;10.95;8.18;;;;;;;-145.63;60.61;39153.31;4946602;29;20319;-67
2023/11/27 02:55:07;;;;;;;11.82;8.35;;;;;;;-145.63;60.26;39217.84;4946847;29;20095;-66
2023/11/27 02:57:33;;;;;;;9.32;7.60;;;;;;;-145.63;60.67;39172.88;4927526;29;20099;-66
2023/11/27 02:59:59;;;;;;;11.40;7.68;;;;;;;-145.63;61.25;39168.97;4938700;29;20090;-65
2023/11/27 03:02:26;;;;;;;10.88;8.68;;;;;;;-145.63;61.07;39180.69;4946297;29;20027;-65
2023/11/27 03:04:52;;;;;;;9.63;7.90;;;;;;;-145.63;61.48;39163.09;4945251;29;20228;-66
2023/11/27 03:07:18;;;;;;;9.38;7.50;;;;;;;-145.63;61.48;39123.97;4946126;29;20027;-66
2023/11/27 03:09:47;;;;;;;11.02;7.00;;;;;;;-145.63;62.13;39176.78;4946217;29;20059;-66
2023/11/27 03:12:12;;;;;;;9.90;8.02;;;;;;;-145.63;61.96;39161.13;4946286;29;20038;-66
2023/11/27 03:14:38;;;;;;;9.32;7.35;;;;;;;-145.63;62.25;39184.59;4942378;29;20024;-66
2023/11/27 03:17:04;;;;;;;9.15;6.95;;;;;;;-145.63;62.15;39151.38;4930827;29;20196;-66
2023/11/27 03:19:30;;;;;;;8.07;6.68;;;;;;;-145.63;62.21;39149.41;4945756;29;20208;-66
2023/11/27 03:21:55;;;;;;;8.45;7.00;;;;;;;-145.63;62.55;39180.69;4945988;29;20023;-66
2023/11/27 03:24:21;;;;;;;7.93;6.57;;;;;;;-145.63;62.67;39165.06;4945917;29;20020;-67
2023/11/27 03:26:46;;;;;;;9.75;6.18;;;;;;;-145.63;62.31;39172.88;4945689;29;20046;-65
2023/11/27 03:29:13;;;;;;;7.70;6.35;;;;;;;-145.63;62.73;39206.13;4945948;29;20031;-65
2023/11/27 03:31:39;;;;;;;7.00;6.25;;;;;;;-145.63;62.33;39176.78;4945525;29;20043;-66
2023/11/27 03:34:04;;;;;;;10.07;7.10;;;;;;;-145.63;62.66;39186.56;4945843;29;20065;-65
2023/11/27 03:36:30;;;;;;;8.20;6.07;;;;;;;-145.63;63.23;39008.59;4945546;29;20299;-65
2023/11/27 03:38:56;;;;;;;8.52;6.50;;;;;;;-145.63;63.27;39184.59;4945789;29;20019;-65
2023/11/27 03:41:21;;;;;;;9.93;6.03;;;;;;;-145.63;63.25;39198.31;4945831;29;20030;-66
2023/11/27 03:43:48;;;;;;;7.00;5.22;;;;;;;-145.63;63.75;39168.97;4945489;29;20016;-66
2023/11/27 03:46:14;;;;;;;6.03;5.22;;;;;;;-145.63;63.97;39229.59;4944707;29;20032;-67
2023/11/27 03:48:40;;;;;;;5.40;4.63;;;;;;;-145.63;64.26;39180.69;4952556;29;20345;-67
2023/11/27 03:51:08;;;;;;;5.03;4.53;;;;;;;-145.63;64.55;39227.63;4952449;29;20043;-67
2023/11/27 03:53:35;;;;;;;6.20;5.03;;;;;;;-145.63;64.57;38895.19;4934203;29;20030;-66
2023/11/27 03:56:02;;;;;;;5.13;4.40;;;;;;;-145.63;63.95;39176.78;4945373;29;20031;-65
2023/11/27 03:58:28;;;;;;;4.20;3.70;;;;;;;-145.63;64.24;39188.53;4945436;29;20024;-66
2023/11/27 04:00:53;;;;;;;5.13;4.32;;;;;;;-145.63;64.42;39196.34;4945290;29;20050;-66
2023/11/27 04:03:19;;;;;;;4.65;3.58;;;;;;;-145.63;63.91;39212.00;4945268;29;20094;-66
2023/11/27 04:05:47;;;;;;;4.80;4.07;;;;;;;-145.63;64.12;39256.97;4949432;29;20031;-67
2023/11/27 04:08:13;;;;;;;4.57;3.88;;;;;;;-145.63;64.50;39200.25;4945356;29;20099;-66
2023/11/27 04:10:38;;;;;;;4.90;4.40;;;;;;;-145.63;64.28;39225.69;4945342;29;20028;-66
2023/11/27 04:13:04;;;;;;;5.13;3.60;;;;;;;-145.63;64.57;39212.00;4958489;29;20173;-66
2023/11/27 04:15:30;;;;;;;5.75;4.43;;;;;;;-145.63;64.21;39213.94;4955943;28;20369;-66
2023/11/27 04:17:57;;;;;;;5.00;3.80;;;;;;;-145.63;64.55;39204.16;4950298;29;20042;-67
2023/11/27 04:20:22;;;;;;;4.00;3.38;;;;;;;-145.63;64.61;39233.50;4953223;29;20120;-66
2023/11/27 04:22:48;;;;;;;4.05;3.42;;;;;;;-145.63;64.42;39233.50;4954417;29;20035;-65
2023/11/27 04:25:14;;;;;;;4.22;3.28;;;;;;;-145.63;64.38;39210.03;4954995;28;20034;-66
2023/11/27 04:27:39;;;;;;;3.78;3.20;;;;;;;-145.63;64.93;39233.50;4947983;29;20031;-67
2023/11/27 04:30:05;;;;;;;4.18;3.53;;;;;;;-145.63;64.68;39200.25;4955944;29;20028;-67
2023/11/27 04:32:35;;;;;;;5.72;3.70;;;;;;;-145.63;65.00;39213.94;4951285;28;20112;-66
2023/11/27 04:35:01;;;;;;;4.80;3.85;;;;;;;-145.63;64.91;39243.28;4944857;29;20032;-68
2023/11/27 04:37:30;;;;;;;4.32;3.92;;;;;;;-145.63;65.10;39219.81;4952392;29;20023;-68
2023/11/27 04:39:56;;;;;;;3.75;3.35;;;;;;;-145.63;64.86;39206.13;4945284;29;20027;-66
2023/11/27 04:42:25;;;;;;;3.90;3.47;;;;;;;-145.63;64.60;39231.53;4945236;29;20056;-66
2023/11/27 04:44:51;;;;;;;4.07;3.60;;;;;;;-145.63;65.68;39204.16;4944869;28;20161;-68
2023/11/27 04:47:18;;;;;;;3.90;3.17;;;;;;;-145.63;65.31;39268.72;4944990;29;20042;-66
2023/11/27 04:49:43;;;;;;;5.15;3.85;;;;;;;-145.63;65.43;39243.28;4955143;29;20031;-66
2023/11/27 04:52:09;;;;;;;3.90;3.50;;;;;;;-145.63;64.86;39227.63;4943198;29;20036;-66
2023/11/27 04:54:34;;;;;;;4.07;3.30;;;;;;;-145.63;64.71;39225.69;4944731;29;20292;-66
2023/11/27 04:57:00;;;;;;;4.50;3.08;;;;;;;-145.63;65.18;39225.69;4944485;29;20043;-65
2023/11/27 04:59:26;;;;;;;3.35;2.95;;;;;;;-145.63;65.43;39258.94;4947304;29;20023;-67
2023/11/27 05:01:52;;;;;;;5.03;3.60;;;;;;;-145.63;64.47;39235.47;4948246;29;20032;-65
2023/11/27 05:04:18;;;;;;;4.18;3.50;;;;;;;-145.63;65.00;39223.72;4948401;29;20300;-66
2023/11/27 05:06:45;;;;;;;5.25;4.30;;;;;;;-145.63;65.40;39239.38;4948157;29;20042;-67
2023/11/27 05:09:16;;;;;;;4.45;3.45;;;;;;;-145.63;64.80;39262.84;4955957;29;20276;-66
2023/11/27 05:11:42;;;;;;;5.18;3.78;;;;;;;-145.63;65.38;39208.06;4958409;28;20337;-69
2023/11/27 05:14:08;;;;;;;4.35;3.65;;;;;;;-145.63;65.56;39251.09;4958680;29;20030;-67
2023/11/27 05:16:34;;;;;;;4.35;3.33;;;;;;;-145.63;65.39;39255.00;4956392;29;20024;-68
2023/11/27 05:18:59;;;;;;;3.60;3.30;;;;;;;-145.63;65.46;38582.31;4958719;28;20082;-67
2023/11/27 05:21:25;;;;;;;4.05;3.40;;;;;;;-145.63;65.27;39255.00;4956116;28;20059;-67
2023/11/27 05:23:51;;;;;;;3.50;3.05;;;;;;;-145.63;65.63;39262.84;4955308;29;20300;-68
2023/11/27 05:26:16;;;;;;;4.30;3.40;;;;;;;-145.63;66.10;39231.53;4957967;29;20027;-68
2023/11/27 05:28:42;;;;;;;3.92;3.20;;;;;;;-145.63;65.38;39288.25;4964516;29;20076;-68
2023/11/27 05:31:09;;;;;;;3.47;2.95;;;;;;;-145.63;66.39;39284.34;4956487;29;20043;-68
2023/11/27 05:33:35;;;;;;;3.40;3.10;;;;;;;-145.63;65.81;39278.47;4947993;29;20212;-67
2023/11/27 05:36:02;;;;;;;3.10;2.80;;;;;;;-145.63;65.76;39057.50;4952178;29;20039;-66
2023/11/27 05:38:28;;;;;;;3.80;3.10;;;;;;;-145.63;66.04;39264.78;4957705;29;20066;-67
2023/11/27 05:40:59;;;;;;;3.65;2.85;;;;;;;-145.63;65.93;39253.06;4947733;29;20095;-68
2023/11/27 05:43:25;;;;;;;3.97;2.70;;;;;;;-145.63;66.24;39278.47;4947732;29;20043;-68
2023/11/27 05:45:50;;;;;;;3.08;2.70;;;;;;;-145.63;66.43;39264.78;4947819;29;20023;-69
2023/11/27 05:48:18;;;;;;;3.33;3.03;;;;;;;-145.63;66.56;39247.19;4947833;29;20209;-68
2023/11/27 05:50:46;;;;;;;3.72;2.97;;;;;;;-145.63;66.63;39282.41;4948071;28;20036;-70
2023/11/27 05:53:12;;;;;;;3.85;3.00;;;;;;;-145.63;66.50;39274.56;4947666;29;20083;-68
2023/11/27 05:55:39;;;;;;;3.95;2.92;;;;;;;-145.63;66.18;39266.75;4943186;29;20016;-67
2023/11/27 05:58:06;;;;;;;5.38;2.80;;;;;;;-145.63;66.43;39278.47;4928210;29;20032;-66
2023/11/27 06:00:31;;;;;;;3.97;2.88;;;;;;;-145.63;66.89;39262.84;4942052;29;20265;-67
2023/11/27 06:02:58;;;;;;;4.07;2.65;;;;;;;-145.63;67.17;39262.84;4947169;29;20028;-68
2023/11/27 06:05:24;;;;;;;3.83;3.42;;;;;;;-145.63;66.30;39294.13;4947420;29;20032;-68
2023/11/27 06:07:50;;;;;;;3.20;2.90;;;;;;;-145.63;66.63;39258.94;4947279;29;20031;-67
2023/11/27 06:10:16;;;;;;;2.97;2.67;;;;;;;-145.63;66.62;39303.91;4947326;29;20192;-67
2023/11/27 06:12:44;;;;;;;3.72;2.88;;;;;;;-145.63;66.26;39264.78;4947332;29;20058;-67
2023/11/27 06:15:14;;;;;;;3.95;2.75;;;;;;;-145.63;66.33;39270.66;4947170;29;20300;-68
2023/11/27 06:17:41;;;;;;;3.03;2.80;;;;;;;-145.63;67.07;39298.03;4947090;29;20027;-67
2023/11/27 06:20:09;;;;;;;3.50;3.17;;;;;;;-145.63;66.67;39290.22;4947463;29;20224;-66
2023/11/27 06:22:36;;;;;;;3.25;2.90;;;;;;;-145.63;67.29;39321.50;4947121;29;20031;-67
2023/11/27 06:25:02;;;;;;;6.25;3.20;;;;;;;-145.63;67.00;39296.09;4947128;29;20027;-67
2023/11/27 06:27:30;;;;;;;3.88;3.40;;;;;;;-145.63;67.35;39255.00;4947201;29;20074;-67
2023/11/27 06:29:56;;;;;;;6.68;3.80;;;;;;;-145.63;67.54;39286.31;4945770;29;20059;-68
2023/11/27 06:32:21;;;;;;;4.07;3.67;;;;;;;-145.63;67.76;39311.72;4947089;29;20050;-66
2023/11/27 06:34:47;;;;;;;3.38;3.03;;;;;;;-145.63;67.56;38969.50;4946832;29;20035;-67
2023/11/27 06:37:13;;;;;;;3.63;3.33;;;;;;;-145.63;67.93;39284.34;4945752;29;20082;-67
2023/11/27 06:39:38;;;;;;;2.78;2.42;;;;;;;-145.63;68.01;39301.94;4946936;29;20024;-68
2023/11/27 06:42:04;;;;;;;3.28;2.97;;;;;;;-145.63;67.99;39294.13;4946840;29;20019;-68
2023/11/27 06:44:30;;;;;;;3.17;2.88;;;;;;;-145.63;68.18;39268.72;4946503;29;20528;-67
2023/11/27 06:46:55;;;;;;;3.28;2.80;;;;;;;-145.63;68.26;39284.34;4946987;29;20483;-69
2023/11/27 06:49:21;;;;;;;3.95;3.10;;;;;;;-145.63;68.13;39282.41;4955746;28;20031;-68
2023/11/27 06:51:47;;;;;;;4.53;3.22;;;;;;;-145.63;68.37;39294.13;4950203;29;20024;-68
2023/11/27 06:54:12;;;;;;;3.60;2.80;;;;;;;-145.63;68.54;39296.09;4946332;29;20315;-68
2023/11/27 06:56:39;;;;;;;4.15;3.13;;;;;;;-145.63;68.55;39280.44;4946332;29;20038;-69
2023/11/27 06:59:05;;;;;;;3.50;3.00;;;;;;;-145.63;68.66;39317.59;4946345;29;20023;-69
2023/11/27 07:01:31;;;;;;;5.22;2.78;;;;;;;-145.63;68.76;39319.56;4946457;29;20062;-68
2023/11/27 07:03:58;;;;;;;3.58;3.25;;;;;;;-145.63;68.57;39264.78;4946082;29;20031;-68
2023/11/27 07:06:25;;;;;;;4.03;3.20;;;;;;;-145.63;68.92;39258.94;4946713;29;20027;-67
2023/11/27 07:08:51;;;;;;;7.68;3.47;;;;;;;-145.63;68.94;39321.50;4946105;29;20320;-67
2023/11/27 07:11:17;;;;;;;4.20;3.55;;;;;;;-145.63;68.79;39303.91;4946126;29;20050;-67
2023/11/27 07:13:43;;;;;;;4.05;3.33;;;;;;;-145.63;68.83;39153.31;4945937;29;20025;-66
2023/11/27 07:16:09;;;;;;;3.72;3.03;;;;;;;-145.63;68.92;39319.56;4930820;29;20030;-66
2023/11/27 07:18:35;;;;;;;3.72;3.30;;;;;;;-145.63;68.90;39341.06;4955398;29;20035;-67
2023/11/27 07:21:01;;;;;;;5.05;3.45;;;;;;;-145.63;69.09;39307.81;4945522;29;20099;-69
2023/11/27 07:23:27;;;;;;;3.83;3.17;;;;;;;-145.63;68.98;39292.19;4945796;29;20096;-67
2023/11/27 07:25:54;;;;;;;4.28;3.40;;;;;;;-145.63;68.88;39307.81;4946092;29;20236;-66
2023/11/27 07:28:19;;;;;;;4.95;3.33;;;;;;;-145.63;68.72;39337.16;4945832;29;20027;-67
2023/11/27 07:30:46;;;;;;;4.13;3.40;;;;;;;-145.63;68.88;39305.88;4945543;29;20276;-67
2023/11/27 07:33:12;;;;;;;3.65;3.13;;;;;;;-145.63;68.98;39335.19;4946216;29;20047;-68
2023/11/27 07:35:39;;;;;;;4.63;3.65;;;;;;;-145.63;68.77;38963.63;4945635;29;20415;-69
2023/11/27 07:38:05;;;;;;;3.83;3.17;;;;;;;-145.63;68.98;39325.41;4945748;29;20231;-67
2023/11/27 07:40:31;;;;;;;3.45;3.15;;;;;;;-145.63;68.88;39329.34;4945595;29;20074;-67
2023/11/27 07:42:57;;;;;;;3.72;3.28;;;;;;;-145.63;68.88;39313.69;4945424;29;20220;-69
2023/11/27 07:45:23;;;;;;;20.20;10.20;;;;;;;-145.63;68.91;39323.47;4945544;29;20035;-69
2023/11/27 07:47:49;;;;;;;4.63;3.85;;;;;;;-145.63;68.70;39194.38;4945467;29;20078;-68
2023/11/27 07:50:14;;;;;;;6.03;3.92;;;;;;;-145.63;68.78;39307.81;4958454;29;20083;-68
2023/11/27 07:52:40;;;;;;;8.35;3.65;;;;;;;-145.63;68.96;39343.03;4945293;29;20106;-68
2023/11/27 07:55:06;;;;;;;4.70;3.60;;;;;;;-145.63;69.12;39319.56;4945457;29;20027;-67
2023/11/27 07:57:33;;;;;;;5.28;4.10;;;;;;;-145.63;69.17;39313.69;4926613;29;20020;-68
2023/11/27 08:00:06;;;;;;;5.07;3.75;;;;;;;-145.63;69.45;39294.13;4934895;29;20030;-68
2023/11/27 08:02:32;;;;;;;6.80;5.35;;;;;;;-145.63;69.54;39331.28;4945207;29;20062;-68
2023/11/27 08:04:59;;;;;;;4.85;4.35;;;;;;;-145.63;69.79;39341.06;4945237;29;20024;-68
2023/11/27 08:07:24;;;;;;;5.38;4.85;;;;;;;-145.63;69.87;39329.34;4945274;29;20024;-68
2023/11/27 08:09:50;;;;;;;5.72;4.70;;;;;;;-145.63;69.83;39319.56;4945271;29;20033;-65
2023/11/27 08:12:16;;;;;;;8.20;5.50;;;;;;;-145.63;69.83;39311.72;4945263;29;20327;-66
2023/11/27 08:14:42;;;;;;;5.07;4.50;;;;;;;-145.63;69.89;39292.19;4944816;29;20024;-67
2023/11/27 08:17:08;;;;;;;5.63;4.97;;;;;;;-145.63;69.63;39317.59;4945215;29;20055;-65
2023/11/27 08:19:34;;;;;;;7.80;4.80;;;;;;;-145.63;69.69;39325.41;4945128;29;20069;-66
2023/11/27 08:22:03;;;;;;;5.07;4.43;;;;;;;-145.63;69.81;39319.56;4945165;29;20253;-67
2023/11/27 08:24:32;;;;;;;5.85;5.07;;;;;;;-145.63;69.75;39325.41;4944898;29;20035;-67
2023/11/27 08:27:01;;;;;;;6.63;5.15;;;;;;;-145.63;69.78;39337.16;4944966;29;20035;-67
2023/11/27 08:29:32;;;;;;;5.88;4.97;;;;;;;-145.63;69.96;39300.00;4944962;29;20039;-68
2023/11/27 08:32:00;;;;;;;5.60;5.05;;;;;;;-145.63;69.94;39303.91;4944891;29;20108;-67
2023/11/27 08:34:28;;;;;;;5.28;4.65;;;;;;;-145.63;70.10;39341.06;4947596;29;20184;-68
2023/11/27 08:36:59;;;;;;;6.15;5.30;;;;;;;-145.63;69.92;39346.94;4949019;29;20031;-69
2023/11/27 08:39:25;;;;;;;7.30;5.57;;;;;;;-145.63;70.40;39315.66;4948885;29;20024;-67
2023/11/27 08:41:51;;;;;;;6.15;5.38;;;;;;;-145.63;70.02;39303.91;4948787;29;20042;-66
2023/11/27 08:44:18;;;;;;;5.93;5.10;;;;;;;-145.63;70.20;39303.91;4948523;29;20091;-67
2023/11/27 08:46:44;;;;;;;8.68;5.80;;;;;;;-145.63;70.04;39321.50;4948673;29;20315;-67
2023/11/27 08:49:12;;;;;;;5.75;4.88;;;;;;;-145.63;70.32;39321.50;4956020;29;20039;-66
2023/11/27 08:51:43;;;;;;;6.95;5.20;;;;;;;-145.63;70.32;38981.22;4953130;29;20045;-67
2023/11/27 08:54:09;;;;;;;6.38;5.70;;;;;;;-145.63;70.44;39341.06;4948707;29;20027;-66
2023/11/27 08:56:34;;;;;;;10.18;6.43;;;;;;;-145.63;70.55;39325.41;4948292;29;20264;-66
2023/11/27 08:59:02;;;;;;;8.13;5.70;;;;;;;-145.63;70.52;38930.38;4949084;29;20034;-66
2023/11/27 09:01:27;;;;;;;8.07;5.85;;;;;;;-145.63;70.63;39323.47;4968049;28;20098;-67
2023/11/27 09:03:53;;;;;;;8.35;6.38;;;;;;;-145.63;70.50;39296.09;4952289;28;20326;-67
2023/11/27 09:06:19;;;;;;;7.70;6.20;;;;;;;-145.63;70.44;39317.59;4948346;29;20157;-67
2023/11/27 09:08:45;;;;;;;6.82;6.13;;;;;;;-145.63;70.35;39315.66;4948320;29;20416;-67
2023/11/27 09:11:11;;;;;;;8.15;5.93;;;;;;;-145.63;70.47;39339.13;4948846;29;20038;-68
2023/11/27 09:13:37;;;;;;;8.75;6.45;;;;;;;-145.63;70.33;39331.28;4948375;29;20024;-68
2023/11/27 09:16:03;;;;;;;8.70;6.57;;;;;;;-145.63;70.59;39366.50;4933745;29;20028;-67
2023/11/27 09:18:31;;;;;;;8.18;6.53;;;;;;;-145.63;70.41;39298.03;4941170;29;20038;-67
2023/11/27 09:20:57;;;;;;;9.15;6.30;;;;;;;-145.63;70.18;39327.38;4948142;29;20189;-68
2023/11/27 09:23:22;;;;;;;8.93;6.35;;;;;;;-145.63;70.73;39303.91;4948028;29;20058;-67
2023/11/27 09:25:48;;;;;;;11.80;7.35;;;;;;;-145.63;70.26;39329.34;4948066;29;20312;-68
2023/11/27 09:28:13;;;;;;;9.57;7.57;;;;;;;-145.63;70.37;39374.31;4948045;29;20036;-67
2023/11/27 09:30:39;;;;;;;9.77;7.13;;;;;;;-145.63;70.50;39337.16;4947786;29;20039;-68
2023/11/27 09:33:05;;;;;;;12.10;7.78;;;;;;;-145.63;70.53;39331.28;4948285;29;20044;-67
2023/11/27 09:35:30;;;;;;;12.00;6.72;;;;;;;-145.63;70.36;39337.16;4947861;29;20059;-67
2023/11/27 09:37:56;;;;;;;10.55;7.50;;;;;;;-145.63;70.65;39245.25;4947999;29;20041;-67
2023/11/27 09:40:22;;;;;;;9.45;6.85;;;;;;;-145.63;70.34;39323.47;4947928;29;20027;-67
2023/11/27 09:42:48;;;;;;;10.20;7.70;;;;;;;-145.63;70.47;39329.34;4947760;29;20382;-66
2023/11/27 09:45:16;;;;;;;10.20;7.10;;;;;;;-145.63;70.43;39315.66;4947571;29;20028;-67
2023/11/27 09:47:45;;;;;;;9.43;6.53;;;;;;;-145.63;70.77;39309.78;4947643;29;20038;-66
2023/11/27 09:50:12;;;;;;;13.40;7.90;;;;;;;-145.63;70.63;39327.38;4961808;29;20030;-67
2023/11/27 09:52:41;;;;;;;11.73;6.95;;;;;;;-145.63;70.61;39335.19;4947411;29;20090;-67
2023/11/27 09:55:09;;;;;;;9.93;7.60;;;;;;;-145.63;70.88;39364.53;4947536;29;20177;-67
2023/11/27 09:57:39;;;;;;;13.35;8.82;;;;;;;-145.63;70.59;39364.53;4947498;29;20039;-68
2023/11/27 10:00:08;;;;;;;9.68;7.70;;;;;;;-145.63;70.62;39294.13;4947585;29;20032;-68
2023/11/27 10:02:35;;;;;;;11.77;7.95;;;;;;;-145.63;70.44;39327.38;4947274;28;20043;-67
2023/11/27 10:05:04;;;;;;;13.35;7.65;;;;;;;-145.63;70.70;39366.50;4946024;29;20059;-66
2023/11/27 10:07:34;;;;;;;11.80;7.90;;;;;;;-145.63;70.80;39362.59;4927588;29;20075;-66
2023/11/27 10:10:07;;;;;;;10.95;7.55;;;;;;;-145.63;70.66;39329.34;4943445;29;20349;-67
2023/11/27 10:12:36;;;;;;;10.30;7.35;;;;;;;-145.63;70.74;39343.03;4946085;29;20095;-66
2023/11/27 10:15:02;;;;;;;8.60;6.93;;;;;;;-145.63;70.76;39352.81;4940274;29;20016;-67
2023/11/27 10:17:33;;;;;;;9.68;7.30;;;;;;;-145.63;70.53;38826.72;4932092;29;20351;-67
2023/11/27 10:19:59;;;;;;;9.23;6.85;;;;;;;-145.63;70.18;39368.44;4947298;29;20296;-68
2023/11/27 10:22:32;;;;;;;10.68;7.82;;;;;;;-145.63;70.08;39335.19;4945813;29;20040;-68
2023/11/27 10:24:59;;;;;;;15.27;7.45;;;;;;;-145.63;70.28;39352.81;4947024;29;20054;-67
2023/11/27 10:27:25;;;;;;;9.95;6.45;;;;;;;-145.63;70.16;39343.03;4957801;29;20027;-68
2023/11/27 10:29:51;;;;;;;11.32;7.97;;;;;;;-145.63;70.26;39280.44;4958816;29;20095;-68
2023/11/27 10:32:17;;;;;;;12.10;8.25;;;;;;;-145.63;70.45;39360.63;4947046;29;20059;-68
2023/11/27 10:34:43;;;;;;;10.95;7.95;;;;;;;-145.63;70.33;39350.84;4977796;28;20032;-66
2023/11/27 10:37:09;;;;;;;11.95;7.97;;;;;;;-145.63;70.53;39362.59;4946977;29;20031;-67
2023/11/27 10:39:34;;;;;;;9.45;7.15;;;;;;;-145.63;70.65;39419.31;4946814;29;20311;-68
2023/11/27 10:42:04;;;;;;;12.85;7.43;;;;;;;-145.63;70.65;39364.53;4946482;29;20042;-68
2023/11/27 10:44:36;;;;;;;12.02;7.88;;;;;;;-145.63;70.83;39315.66;4946247;29;20031;-68
2023/11/27 10:47:07;;;;;;;11.90;8.50;;;;;;;-145.63;70.76;39358.66;4977307;28;20038;-69
2023/11/27 10:49:42;;;;;;;10.98;7.35;;;;;;;-145.63;71.00;39344.97;4948188;29;20069;-67
2023/11/27 10:52:11;;;;;;;10.68;7.75;;;;;;;-145.63;71.01;39225.69;4949087;29;20094;-68
2023/11/27 10:54:41;;;;;;;11.15;8.00;;;;;;;-145.63;70.86;39329.34;4946158;29;20071;-67
2023/11/27 10:57:08;;;;;;;13.23;8.10;;;;;;;-145.63;70.94;39362.59;4945301;29;20028;-67
2023/11/27 10:59:44;;;;;;;13.60;8.25;;;;;;;-145.63;70.94;39343.03;4946243;29;20107;-67
2023/11/27 11:02:11;;;;;;;14.07;9.13;;;;;;;-145.63;70.94;39339.13;4946561;29;20200;-67
2023/11/27 11:04:46;;;;;;;10.90;7.82;;;;;;;-145.63;70.67;39370.41;4946305;29;20288;-68
2023/11/27 11:07:22;;;;;;;15.32;9.10;;;;;;;-145.63;71.03;39376.28;4977433;28;20387;-67
2023/11/27 11:09:55;;;;;;;14.40;8.77;;;;;;;-145.63;70.89;38971.44;4946103;29;20056;-68